Time;durP1;ratioP1;P1;durP2;ratioP2;P2;SDS_P1;SDS_P2;PMS_P1;PMS_P2;Temp;Humidity;BMP_temperature;BMP_pressure;BME280_temperature;BME280_humidity;BME280_pressure;Samples;Min_cycle;Max_cycle;Signal;HPM_P1;HPM_P2
2022/04/23 00:04:33;;;;;;;26.43;20.00;;;;;;;6.82;100.00;95818.34;10450927;28;20235;-54
2022/04/23 00:09:33;;;;;;;24.17;19.13;;;;;;;6.68;100.00;95810.13;10451027;28;20244;-54
2022/04/23 00:14:34;;;;;;;25.83;19.67;;;;;;;6.76;100.00;95802.34;10450922;28;20277;-53
2022/04/23 00:19:35;;;;;;;28.90;21.07;;;;;;;6.31;100.00;95799.97;10450926;28;20220;-53
2022/04/23 00:24:36;;;;;;;28.53;21.53;;;;;;;6.22;100.00;95792.13;10450734;28;20223;-53
2022/04/23 00:29:36;;;;;;;26.47;19.33;;;;;;;5.94;100.00;95801.81;10450697;28;20212;-53
2022/04/23 00:34:36;;;;;;;25.10;19.93;;;;;;;5.53;100.00;95804.84;10454376;28;20291;-55
2022/04/23 00:39:37;;;;;;;24.27;18.93;;;;;;;5.19;100.00;95804.63;10457956;28;20207;-53
2022/04/23 00:44:38;;;;;;;30.17;21.33;;;;;;;4.93;100.00;95796.72;10457798;28;20306;-54
2022/04/23 00:49:38;;;;;;;29.03;20.27;;;;;;;4.69;100.00;95805.84;10457564;28;20212;-53
2022/04/23 00:54:38;;;;;;;28.33;19.80;;;;;;;4.32;100.00;95808.41;10457436;28;20203;-54
2022/04/23 00:59:40;;;;;;;30.60;21.57;;;;;;;4.18;100.00;95804.47;10456270;28;20710;-53
2022/04/23 01:04:40;;;;;;;29.23;18.80;;;;;;;4.02;100.00;95805.06;10456950;28;20235;-53
2022/04/23 01:09:44;;;;;;;27.50;19.97;;;;;;;3.85;100.00;95807.38;10456748;28;20642;-56
2022/04/23 01:15:01;;;;;;;29.10;19.80;;;;;;;3.52;100.00;95812.00;10456482;28;20223;-58
2022/04/23 01:20:13;;;;;;;29.07;20.13;;;;;;;3.28;100.00;95806.38;10456356;28;20216;-54
2022/04/23 01:25:14;;;;;;;28.77;19.93;;;;;;;3.11;100.00;95813.84;10456137;28;20223;-55
2022/04/23 01:30:15;;;;;;;29.53;20.00;;;;;;;2.99;100.00;95805.38;10456060;28;20580;-54
2022/04/23 01:35:16;;;;;;;28.60;21.00;;;;;;;2.93;100.00;95810.25;10455843;28;20192;-56
2022/04/23 01:40:16;;;;;;;37.87;21.83;;;;;;;2.57;100.00;95800.31;10455721;28;20216;-54
2022/04/23 01:45:17;;;;;;;28.37;19.80;;;;;;;2.38;100.00;95808.81;10454168;28;20215;-55
2022/04/23 01:50:17;;;;;;;32.80;21.83;;;;;;;2.23;100.00;95810.06;10455171;28;20211;-56
2022/04/23 01:55:18;;;;;;;31.27;21.27;;;;;;;2.23;100.00;95815.25;10454789;28;20191;-58
2022/04/23 02:00:18;;;;;;;35.00;22.17;;;;;;;2.21;100.00;95815.38;10454890;28;20713;-54
2022/04/23 02:05:19;;;;;;;35.03;23.20;;;;;;;2.42;100.00;95812.78;10454655;28;20638;-53
2022/04/23 02:10:19;;;;;;;34.27;21.43;;;;;;;2.60;100.00;95812.97;10454297;28;20326;-53
2022/04/23 02:15:20;;;;;;;36.80;23.27;;;;;;;2.40;100.00;95806.91;10454430;28;20215;-53
2022/04/23 02:20:23;;;;;;;33.90;21.80;;;;;;;2.12;100.00;95808.38;10454019;28;20261;-54
2022/04/23 02:25:24;;;;;;;27.63;19.47;;;;;;;1.81;100.00;95807.47;10453746;28;20589;-54
2022/04/23 02:30:25;;;;;;;35.00;22.87;;;;;;;1.60;100.00;95806.50;10453835;28;20220;-54
2022/04/23 02:35:25;;;;;;;35.10;21.83;;;;;;;1.95;100.00;95804.59;10436075;28;20671;-55
2022/04/23 02:40:25;;;;;;;35.30;21.43;;;;;;;1.82;100.00;95803.97;10453483;28;20604;-57
2022/04/23 02:45:27;;;;;;;36.93;23.10;;;;;;;1.85;100.00;95801.13;10452904;28;20713;-57
2022/04/23 02:50:30;;;;;;;35.97;21.93;;;;;;;1.56;100.00;95799.97;10452914;28;20225;-55
2022/04/23 02:55:31;;;;;;;34.17;21.43;;;;;;;1.40;100.00;95807.31;10452144;28;20651;-57
2022/04/23 03:00:32;;;;;;;39.10;22.07;;;;;;;1.38;100.00;95809.19;10452577;28;20207;-57
2022/04/23 03:05:33;;;;;;;32.83;21.03;;;;;;;1.27;100.00;95806.63;10452941;28;20227;-58
2022/04/23 03:10:33;;;;;;;32.53;20.47;;;;;;;1.08;100.00;95807.28;10452120;28;20607;-56
2022/04/23 03:15:35;;;;;;;24.90;17.53;;;;;;;0.85;100.00;95815.03;10452621;28;20241;-59
2022/04/23 03:20:36;;;;;;;28.03;18.40;;;;;;;0.55;100.00;95821.59;10452381;28;20210;-55
2022/04/23 03:25:37;;;;;;;29.80;19.53;;;;;;;0.42;100.00;95820.91;10451928;28;20720;-57
2022/04/23 03:30:38;;;;;;;34.03;21.07;;;;;;;0.52;100.00;95816.66;10451927;28;20219;-57
2022/04/23 03:35:39;;;;;;;28.47;18.30;;;;;;;0.53;100.00;95828.63;10451767;28;20309;-55
2022/04/23 03:40:39;;;;;;;31.37;19.37;;;;;;;0.41;100.00;95832.13;10451838;28;20290;-57
2022/04/23 03:45:39;;;;;;;33.23;19.17;;;;;;;0.29;100.00;95832.13;10451461;28;20287;-57
2022/04/23 03:50:41;;;;;;;34.90;20.30;;;;;;;0.16;100.00;95837.34;10451601;28;20301;-55
2022/04/23 03:55:41;;;;;;;29.60;18.93;;;;;;;0.15;100.00;95840.03;10451256;28;20251;-61
2022/04/23 04:00:41;;;;;;;37.30;20.97;;;;;;;0.38;100.00;95830.59;10451162;28;20214;-57
2022/04/23 04:05:42;;;;;;;30.17;19.03;;;;;;;0.49;100.00;95837.50;10451491;28;20330;-55
2022/04/23 04:10:42;;;;;;;30.37;18.57;;;;;;;0.70;100.00;95843.63;10455664;28;20233;-55
2022/04/23 04:15:45;;;;;;;30.23;19.13;;;;;;;0.80;100.00;95846.31;10458752;28;20205;-59
2022/04/23 04:20:48;;;;;;;28.70;18.77;;;;;;;0.85;100.00;95851.94;10441447;28;20705;-58
2022/04/23 04:25:49;;;;;;;30.63;19.93;;;;;;;1.03;100.00;95847.13;10458581;28;20313;-54
2022/04/23 04:36:08;;;;;;;36.17;21.87;;;;;;;1.06;100.00;95841.72;10458550;28;20192;-61
2022/04/23 04:41:08;;;;;;;34.00;20.87;;;;;;;1.34;100.00;95849.88;10458007;28;20214;-55
2022/04/23 04:46:09;;;;;;;31.03;20.23;;;;;;;1.37;100.00;95834.16;10457852;28;20309;-58
2022/04/23 04:51:09;;;;;;;34.73;19.60;;;;;;;1.61;100.00;95843.50;10457839;28;20216;-56
2022/04/23 04:56:09;;;;;;;30.13;20.47;;;;;;;1.86;100.00;95850.06;10457240;28;20197;-60
2022/04/23 05:01:10;;;;;;;27.50;18.60;;;;;;;1.99;100.00;95852.50;10457601;28;20243;-56
2022/04/23 05:06:10;;;;;;;25.80;17.90;;;;;;;2.34;100.00;95851.34;10457146;28;20322;-59
2022/04/23 05:11:11;;;;;;;26.23;17.67;;;;;;;2.60;100.00;95853.53;10478089;22;20285;-58
2022/04/23 05:16:11;;;;;;;25.03;18.00;;;;;;;2.81;100.00;95859.47;10456779;28;20207;-57
2022/04/23 05:21:12;;;;;;;23.57;17.33;;;;;;;2.95;100.00;95868.66;10456353;28;20204;-59
2022/04/23 05:26:12;;;;;;;24.67;17.30;;;;;;;3.20;100.00;95856.22;10456283;28;20716;-56
2022/04/23 05:31:13;;;;;;;23.57;16.13;;;;;;;3.42;100.00;95860.38;10455814;28;20253;-59
2022/04/23 05:36:13;;;;;;;24.83;17.13;;;;;;;3.52;100.00;95866.41;10455165;28;20270;-59
2022/04/23 05:41:13;;;;;;;23.47;15.87;;;;;;;4.07;100.00;95865.06;10455826;28;20219;-57
2022/04/23 05:46:16;;;;;;;26.03;17.30;;;;;;;4.50;100.00;95861.16;10455546;28;20319;-60
2022/04/23 05:51:16;;;;;;;22.57;14.80;;;;;;;5.44;100.00;95856.88;10455019;28;20302;-58
2022/04/23 05:56:16;;;;;;;20.90;13.53;;;;;;;6.34;100.00;95860.31;10454612;28;20565;-59
2022/04/23 06:01:17;;;;;;;15.97;12.17;;;;;;;7.72;100.00;95844.69;10454847;28;20242;-60
2022/04/23 06:06:19;;;;;;;14.30;11.47;;;;;;;8.31;100.00;95826.28;10454973;28;20216;-60
2022/04/23 06:11:19;;;;;;;12.33;10.90;;;;;;;7.96;98.30;95820.44;10451260;28;20235;-60
2022/04/23 06:16:19;;;;;;;15.10;11.33;;;;;;;8.92;92.37;95799.78;10454509;28;20188;-60
2022/04/23 06:21:21;;;;;;;12.37;9.63;;;;;;;9.52;86.02;95753.91;10454485;28;20212;-51
2022/04/23 06:26:21;;;;;;;11.83;9.47;;;;;;;9.45;87.17;95777.31;10453849;28;20305;-52
2022/04/23 06:31:22;;;;;;;10.70;8.60;;;;;;;10.54;80.65;95729.19;10453206;28;20636;-50
2022/04/23 06:36:22;;;;;;;11.43;8.38;;;;;;;10.21;79.69;95742.56;10453535;28;20215;-53
2022/04/23 06:41:23;;;;;;;10.25;8.65;;;;;;;10.86;74.84;95688.69;10453365;28;20223;-54
2022/04/23 06:46:23;;;;;;;11.60;9.10;;;;;;;11.33;75.03;95702.34;10453245;28;20223;-52
2022/04/23 06:51:24;;;;;;;10.50;8.18;;;;;;;12.09;71.11;95664.25;10449681;28;20208;-53
2022/04/23 06:56:24;;;;;;;9.38;7.88;;;;;;;11.34;69.47;95633.13;10450254;28;20314;-51
2022/04/23 07:01:25;;;;;;;9.88;7.88;;;;;;;10.95;71.23;95675.47;10444056;28;20269;-55
2022/04/23 07:06:25;;;;;;;14.37;8.30;;;;;;;10.40;74.56;95727.38;10451670;28;20745;-52
2022/04/23 07:11:26;;;;;;;9.13;7.33;;;;;;;9.76;76.94;95773.03;10450729;28;20365;-58
2022/04/23 07:16:26;;;;;;;10.73;8.47;;;;;;;10.78;74.41;95727.28;10450264;28;20200;-58
2022/04/23 07:21:26;;;;;;;9.32;8.30;;;;;;;10.95;74.85;95746.22;10450801;28;20212;-54
2022/04/23 07:26:27;;;;;;;9.07;8.07;;;;;;;11.48;72.58;95714.56;10450599;28;20220;-52
2022/04/23 07:31:27;;;;;;;9.82;8.00;;;;;;;11.89;70.96;95706.84;10447467;28;20242;-54
2022/04/23 07:41:47;;;;;;;9.85;7.60;;;;;;;12.29;66.58;95635.47;10451450;28;20207;-51
2022/04/23 07:46:47;;;;;;;11.57;8.65;;;;;;;12.83;67.59;95660.16;10460271;28;20207;-58
2022/04/23 07:51:48;;;;;;;11.07;8.80;;;;;;;12.68;69.29;95686.59;10454993;28;21060;-57
2022/04/23 07:56:48;;;;;;;10.90;8.98;;;;;;;12.78;68.74;95681.78;10457930;28;20246;-58
2022/04/23 08:01:49;;;;;;;11.20;8.52;;;;;;;13.09;69.23;95691.00;10459776;28;20215;-57
2022/04/23 08:06:49;;;;;;;11.15;9.15;;;;;;;12.59;67.94;95669.38;10456855;28;20207;-57
2022/04/23 08:11:49;;;;;;;11.70;8.85;;;;;;;13.12;66.11;95638.00;10458233;28;20702;-59
2022/04/23 08:16:50;;;;;;;9.18;8.00;;;;;;;14.16;64.61;95629.78;10457780;28;20188;-55
2022/04/23 08:21:50;;;;;;;10.73;8.75;;;;;;;13.09;66.69;95677.03;10454469;28;20286;-59
2022/04/23 08:26:51;;;;;;;11.93;8.10;;;;;;;12.49;67.28;95686.28;10453280;28;20298;-61
2022/04/23 08:31:52;;;;;;;11.73;8.60;;;;;;;11.82;69.81;95721.72;10455574;28;20215;-59
2022/04/23 08:36:54;;;;;;;10.93;8.93;;;;;;;12.07;70.06;95729.25;10456034;28;20196;-60
2022/04/23 08:41:54;;;;;;;8.77;7.45;;;;;;;13.83;64.62;95631.44;10456898;28;20246;-59
2022/04/23 08:47:04;;;;;;;8.07;7.28;;;;;;;14.10;63.37;95618.22;10439204;28;20804;-60
2022/04/23 08:52:37;;;;;;;7.97;7.18;;;;;;;14.01;64.22;95645.78;10456549;28;20757;-57
2022/04/23 08:57:37;;;;;;;8.75;6.97;;;;;;;14.01;61.97;95587.84;10455004;28;20630;-61
2022/04/23 09:02:38;;;;;;;7.78;6.63;;;;;;;14.80;58.80;95546.44;10446337;28;20196;-61
2022/04/23 09:07:39;;;;;;;6.93;5.90;;;;;;;15.23;57.95;95524.66;10414452;28;20649;-60
2022/04/23 09:12:56;;;;;;;6.18;2.22;;;;;;;14.05;43.92;95141.41;10452536;28;20653;-60
2022/04/23 09:28:34;;;;;;;7.20;2.50;;;;;;;14.67;46.46;95253.94;10453222;28;20570;-61
2022/04/23 09:33:51;;;;;;;4.20;3.50;;;;;;;14.33;45.22;95203.34;10454759;28;20196;-61
2022/04/23 09:39:02;;;;;;;5.47;4.88;;;;;;;15.37;55.31;95527.19;10454675;28;20261;-59
2022/04/23 09:44:07;;;;;;;3.10;2.35;;;;;;;15.06;44.61;95222.91;10453347;28;20211;-58
2022/04/23 09:49:09;;;;;;;4.43;2.70;;;;;;;15.56;47.00;95327.41;10453903;28;20208;-60
2022/04/23 09:54:09;;;;;;;2.30;2.10;;;;;;;14.19;43.30;95190.31;10453492;28;20550;-61
2022/04/23 09:59:11;;;;;;;4.50;3.97;;;;;;;15.58;54.59;95536.56;10435789;28;20207;-61
2022/04/23 10:04:13;;;;;;;5.10;4.60;;;;;;;16.95;50.29;95445.47;10453883;28;20211;-60
2022/04/23 10:09:14;;;;;;;5.43;3.78;;;;;;;16.59;45.49;95315.00;10435003;28;20285;-59
2022/04/23 10:14:19;;;;;;;4.07;3.20;;;;;;;17.24;46.99;95379.44;10451292;28;20235;-58
2022/04/23 10:19:20;;;;;;;3.75;3.30;;;;;;;17.63;45.79;95359.34;10433861;28;20708;-59
2022/04/23 10:24:33;;;;;;;2.35;2.15;;;;;;;17.50;43.55;95284.69;10453947;28;20220;-62
2022/04/23 10:29:33;;;;;;;2.22;2.03;;;;;;;14.75;45.46;95257.09;10453168;28;20227;-61
2022/04/23 10:34:34;;;;;;;2.90;2.45;;;;;;;15.62;41.91;95182.16;10429483;28;20196;-61
2022/04/23 10:39:34;;;;;;;2.67;2.30;;;;;;;17.48;41.66;95238.03;10449184;28;20218;-61
2022/04/23 10:44:35;;;;;;;3.33;2.90;;;;;;;17.28;42.29;95254.34;10428809;28;20723;-62
2022/04/23 10:49:35;;;;;;;3.17;2.72;;;;;;;16.94;43.50;95278.00;10431510;28;20595;-60
2022/04/23 10:54:47;;;;;;;2.50;1.88;;;;;;;16.96;39.06;95123.53;10447868;28;20301;-62
2022/04/23 10:59:48;;;;;;;2.40;2.20;;;;;;;17.89;42.33;95277.75;10447407;28;20775;-60
2022/04/23 11:16:07;;;;;;;2.55;1.95;;;;;;;17.67;39.04;95141.72;10404601;28;20211;-61
2022/04/23 11:21:45;;;;;;;2.17;1.85;;;;;;;19.16;40.43;95232.19;10453024;28;20215;-59
2022/04/23 11:27:23;;;;;;;2.25;1.75;;;;;;;19.25;40.94;95262.56;10435135;28;20597;-59
2022/04/23 11:32:28;;;;;;;2.10;1.90;;;;;;;19.90;38.87;95209.59;10416928;28;20299;-61
2022/04/23 11:37:38;;;;;;;1.75;1.50;;;;;;;20.63;36.23;95155.06;10448540;28;20264;-61
2022/04/23 11:42:46;;;;;;;2.28;1.70;;;;;;;18.49;35.89;95068.72;10447527;28;20203;-61
2022/04/23 11:47:55;;;;;;;3.53;2.00;;;;;;;19.06;37.21;95131.19;10454755;28;20242;-61
2022/04/23 11:53:03;;;;;;;2.40;1.70;;;;;;;20.70;36.77;95176.13;10444447;28;20200;-61
2022/04/23 11:58:05;;;;;;;2.20;2.00;;;;;;;20.38;37.58;95199.06;10448691;28;20227;-61
2022/04/23 12:03:06;;;;;;;1.90;1.70;;;;;;;18.95;38.29;95179.91;10450523;28;20192;-61
2022/04/23 12:08:20;;;;;;;2.70;1.67;;;;;;;19.10;36.56;95118.25;10449572;28;20259;-61
2022/04/23 12:13:20;;;;;;;1.60;1.50;;;;;;;19.47;41.10;95280.34;10451279;28;20183;-62
2022/04/23 12:18:22;;;;;;;3.47;1.77;;;;;;;20.03;37.55;95181.81;10432781;28;20254;-63
2022/04/23 12:23:22;;;;;;;2.05;1.85;;;;;;;20.70;38.43;95238.13;10450737;28;20207;-60
2022/04/23 12:44:53;;;;;;;2.22;1.80;;;;;;;21.16;38.84;95221.59;10457522;28;20207;-62
2022/04/23 12:50:00;;;;;;;3.42;1.67;;;;;;;20.96;37.44;95180.50;10456789;28;20224;-61
2022/04/23 12:55:26;;;;;;;1.80;1.70;;;;;;;20.18;37.03;95130.59;10456849;28;20199;-60
2022/04/23 13:00:27;;;;;;;3.83;2.13;;;;;;;21.00;39.22;95226.84;10456193;28;20636;-62
2022/04/23 13:05:27;;;;;;;2.20;1.73;;;;;;;22.03;35.69;95147.16;10456025;28;20247;-60
2022/04/23 13:10:28;;;;;;;2.10;1.90;;;;;;;22.34;36.63;95189.84;10456205;28;20267;-62
2022/04/23 13:15:29;;;;;;;3.45;1.98;;;;;;;22.73;36.19;95175.09;10456152;28;20566;-61
2022/04/23 13:20:29;;;;;;;2.13;1.73;;;;;;;23.64;33.34;95116.16;10456169;28;20207;-61
2022/04/23 13:25:29;;;;;;;1.98;1.80;;;;;;;19.81;36.22;95041.03;10455617;28;20234;-60
2022/04/23 13:30:30;;;;;;;2.40;1.80;;;;;;;19.42;37.99;95110.31;10455664;28;20216;-60
2022/04/23 13:35:31;;;;;;;4.45;3.65;;;;;;;20.45;39.30;95198.84;10454466;28;20214;-61
2022/04/23 13:40:32;;;;;;;2.53;2.33;;;;;;;20.74;39.90;95217.16;10454702;28;20216;-60
2022/04/23 13:45:34;;;;;;;2.15;1.80;;;;;;;22.39;35.83;95155.16;10455044;28;20227;-60
2022/04/23 13:50:34;;;;;;;2.15;1.95;;;;;;;21.67;37.04;95157.00;10454855;28;20208;-61
2022/04/23 13:55:35;;;;;;;2.30;2.10;;;;;;;22.85;35.49;95129.38;10438643;28;20188;-62
2022/04/23 14:00:35;;;;;;;2.13;1.95;;;;;;;22.65;37.85;95205.81;10454278;28;20307;-62
2022/04/23 14:10:54;;;;;;;2.13;1.92;;;;;;;23.81;34.66;95118.41;10454219;28;20239;-62
2022/04/23 14:15:56;;;;;;;3.10;2.08;;;;;;;22.08;36.77;95154.34;10454617;28;20196;-62
2022/04/23 14:20:56;;;;;;;3.63;1.92;;;;;;;24.79;34.08;95149.66;10460090;28;20223;-62
2022/04/23 14:25:57;;;;;;;2.17;1.95;;;;;;;23.83;34.33;95111.72;10462009;28;20220;-62
2022/04/23 14:30:57;;;;;;;3.08;2.35;;;;;;;22.72;36.09;95146.81;10454055;28;20223;-62
2022/04/23 14:35:58;;;;;;;3.40;2.00;;;;;;;20.24;39.77;95158.81;10453744;28;20188;-62
2022/04/23 14:40:58;;;;;;;3.00;2.72;;;;;;;21.10;38.07;95148.09;10452776;28;20207;-62
2022/04/23 14:45:58;;;;;;;2.88;2.05;;;;;;;21.55;38.18;95162.63;10453113;28;20220;-62
2022/04/23 14:56:18;;;;;;;3.58;2.22;;;;;;;22.07;37.68;95166.09;10452973;28;20196;-62
2022/04/23 15:01:20;;;;;;;2.40;2.10;;;;;;;24.64;34.09;95124.66;10452023;28;20211;-63
2022/04/23 15:06:21;;;;;;;2.10;1.95;;;;;;;24.62;33.63;95115.31;10452193;28;20212;-62
2022/04/23 15:11:22;;;;;;;2.95;2.63;;;;;;;23.96;34.36;95104.94;10452179;28;20235;-62
2022/04/23 15:16:23;;;;;;;3.63;2.28;;;;;;;22.78;36.47;95141.16;10452285;28;20195;-62
2022/04/23 15:21:23;;;;;;;6.03;4.45;;;;;;;21.83;38.29;95157.84;10452290;28;20216;-62
2022/04/23 15:26:24;;;;;;;2.90;2.60;;;;;;;21.47;38.96;95179.88;10451845;28;20212;-63
2022/04/23 15:31:24;;;;;;;22.42;16.63;;;;;;;20.66;38.95;95134.09;10452286;28;20216;-62
2022/04/23 15:36:24;;;;;;;4.38;3.22;;;;;;;19.06;41.34;95165.69;10451503;28;20219;-62
2022/04/23 15:41:26;;;;;;;3.00;2.70;;;;;;;19.52;41.44;95186.63;10451970;28;20281;-61
2022/04/23 15:46:26;;;;;;;2.75;2.55;;;;;;;18.60;43.10;95218.16;10395223;28;20216;-61
2022/04/23 15:51:26;;;;;;;4.45;3.50;;;;;;;20.38;40.83;95208.91;10410455;28;20226;-61
2022/04/23 15:56:27;;;;;;;4.30;2.83;;;;;;;22.34;36.63;95139.16;10409781;28;20192;-61
2022/04/23 16:01:27;;;;;;;3.20;2.90;;;;;;;22.56;37.33;95183.41;10409618;28;20224;-61
2022/04/23 16:06:29;;;;;;;5.88;3.03;;;;;;;21.97;37.57;95158.09;10415490;28;20227;-61
2022/04/23 16:11:29;;;;;;;4.13;2.80;;;;;;;21.90;37.81;95164.50;10417826;28;20243;-62
2022/04/23 16:16:29;;;;;;;4.15;3.10;;;;;;;20.91;39.78;95169.84;10418150;28;20590;-61
2022/04/23 16:21:30;;;;;;;3.75;3.45;;;;;;;20.35;40.69;95193.47;10400211;28;20212;-61
2022/04/23 16:26:30;;;;;;;3.88;3.47;;;;;;;19.00;43.68;95236.50;10416738;28;20235;-62
2022/04/23 16:31:32;;;;;;;4.45;3.78;;;;;;;18.72;43.97;95245.38;10417342;28;20240;-62
2022/04/23 16:47:11;;;;;;;4.40;3.95;;;;;;;15.78;49.57;95309.31;10416093;28;20219;-61
2022/04/23 16:52:11;;;;;;;5.90;5.30;;;;;;;15.42;50.35;95329.41;10416568;28;20204;-59
2022/04/23 16:57:12;;;;;;;7.07;4.70;;;;;;;14.93;51.74;95353.88;10416438;28;20201;-60
2022/04/23 17:02:12;;;;;;;5.13;4.30;;;;;;;14.82;51.40;95343.22;10416145;28;20266;-60
2022/04/23 17:07:13;;;;;;;4.97;4.20;;;;;;;14.35;51.92;95335.66;10415970;28;20209;-60
2022/04/23 17:12:13;;;;;;;4.28;3.88;;;;;;;14.28;52.91;95365.50;10415358;28;20241;-59
2022/04/23 17:17:13;;;;;;;4.38;3.97;;;;;;;13.83;53.86;95384.00;10415114;28;20181;-60
2022/04/23 17:22:14;;;;;;;5.20;4.32;;;;;;;13.66;54.42;95396.00;10415284;28;20205;-61
2022/04/23 17:27:14;;;;;;;6.57;3.88;;;;;;;13.34;54.72;95401.16;10414889;28;20227;-59
2022/04/23 17:32:15;;;;;;;4.45;4.05;;;;;;;13.00;54.69;95388.03;10414804;28;20215;-62
2022/04/23 17:37:15;;;;;;;5.43;4.45;;;;;;;12.92;55.50;95401.38;10414307;28;20216;-61
2022/04/23 17:42:16;;;;;;;6.57;5.38;;;;;;;12.78;55.77;95420.81;10414371;28;21000;-61
2022/04/23 17:47:17;;;;;;;4.70;4.30;;;;;;;12.57;57.01;95437.56;10413826;28;20252;-61
2022/04/23 17:52:18;;;;;;;5.63;4.63;;;;;;;12.32;58.01;95459.13;10413994;28;20212;-60
2022/04/23 17:57:19;;;;;;;5.13;4.63;;;;;;;12.23;57.59;95447.19;10414072;28;20267;-59
2022/04/23 18:07:38;;;;;;;6.65;4.80;;;;;;;11.65;60.45;95498.19;10413054;28;20216;-59
2022/04/23 18:12:38;;;;;;;5.97;5.20;;;;;;;11.35;60.64;95487.13;10413317;28;20571;-59
2022/04/23 18:17:39;;;;;;;6.00;5.40;;;;;;;10.99;62.58;95524.75;10412904;28;20617;-60
2022/04/23 18:22:39;;;;;;;6.70;5.33;;;;;;;10.95;61.79;95500.75;10412852;28;20621;-58
2022/04/23 18:27:40;;;;;;;5.38;4.78;;;;;;;10.86;62.14;95502.69;10411501;28;20267;-59
2022/04/23 18:32:40;;;;;;;5.07;4.50;;;;;;;10.61;63.92;95525.00;10412707;28;20192;-58
2022/04/23 18:37:41;;;;;;;6.63;5.10;;;;;;;10.33;65.15;95539.59;10411786;28;20675;-59
2022/04/23 18:42:41;;;;;;;5.27;4.73;;;;;;;10.16;67.08;95580.84;10411603;28;20220;-60
2022/04/23 18:47:42;;;;;;;6.63;5.70;;;;;;;9.72;68.43;95596.53;10411678;28;20219;-59
2022/04/23 18:52:45;;;;;;;6.70;6.00;;;;;;;9.42;71.06;95606.94;10411618;28;20224;-57
2022/04/23 18:57:46;;;;;;;8.00;5.90;;;;;;;9.17;71.90;95603.72;10411488;28;20663;-58
2022/04/23 19:02:47;;;;;;;8.77;6.37;;;;;;;8.77;73.93;95606.41;10411045;28;20224;-55
2022/04/23 19:07:48;;;;;;;7.80;6.47;;;;;;;8.48;76.25;95635.78;10411116;28;20733;-54
2022/04/23 19:12:48;;;;;;;7.30;5.60;;;;;;;7.83;81.45;95622.75;10411557;28;20676;-57
2022/04/23 19:17:48;;;;;;;7.67;6.17;;;;;;;7.40;85.83;95597.91;10410661;28;20201;-55
2022/04/23 19:28:08;;;;;;;11.97;6.67;;;;;;;6.75;96.45;95589.06;10410820;28;20240;-59
2022/04/23 19:33:11;;;;;;;8.97;7.30;;;;;;;6.53;99.76;95582.69;10410837;28;20648;-56
2022/04/23 19:38:12;;;;;;;7.97;6.40;;;;;;;6.47;100.00;95591.13;10412158;28;20208;-54
2022/04/23 19:43:12;;;;;;;8.30;6.67;;;;;;;6.30;100.00;95582.47;10418862;28;20635;-56
2022/04/23 19:48:13;;;;;;;12.80;7.33;;;;;;;6.14;100.00;95578.03;10418634;28;20303;-57
2022/04/23 19:53:13;;;;;;;8.77;6.90;;;;;;;5.97;100.00;95567.56;10418858;28;20207;-55
2022/04/23 19:58:14;;;;;;;9.80;7.30;;;;;;;5.86;100.00;95575.59;10418413;28;20239;-54
2022/04/23 20:03:14;;;;;;;11.70;8.53;;;;;;;5.70;100.00;95574.56;10418195;28;20192;-55
2022/04/23 20:08:15;;;;;;;11.30;8.50;;;;;;;5.67;100.00;95574.84;10417739;28;20322;-54
2022/04/23 20:13:15;;;;;;;11.13;8.87;;;;;;;5.42;100.00;95567.88;10418055;28;20212;-53
2022/04/23 20:18:15;;;;;;;9.53;8.10;;;;;;;5.62;100.00;95568.50;10417750;28;20216;-54
2022/04/23 20:23:16;;;;;;;14.20;9.13;;;;;;;5.58;100.00;95568.00;10417868;28;20192;-57
2022/04/23 20:28:16;;;;;;;12.13;8.57;;;;;;;5.39;100.00;95573.38;10417441;28;20729;-56
2022/04/23 20:33:16;;;;;;;13.43;9.37;;;;;;;5.27;100.00;95568.44;10417230;28;20193;-54
2022/04/23 20:38:17;;;;;;;11.53;8.43;;;;;;;5.19;100.00;95565.78;10416327;28;20276;-55
2022/04/23 20:43:18;;;;;;;16.73;9.23;;;;;;;4.99;100.00;95571.16;10416041;28;20192;-57
2022/04/23 20:48:18;;;;;;;13.87;8.67;;;;;;;4.92;100.00;95564.13;10416660;28;20244;-54
2022/04/23 20:53:18;;;;;;;12.30;7.87;;;;;;;4.88;100.00;95560.19;10415478;28;20716;-54
2022/04/23 20:58:20;;;;;;;11.53;8.33;;;;;;;4.87;100.00;95564.59;10416367;28;20247;-53
2022/04/23 21:03:21;;;;;;;16.53;8.17;;;;;;;4.77;100.00;95556.84;10416090;28;20223;-54
2022/04/23 21:08:22;;;;;;;13.63;8.37;;;;;;;4.68;100.00;95562.94;10415478;28;20236;-56
2022/04/23 21:13:22;;;;;;;11.97;7.97;;;;;;;4.60;100.00;95550.72;10416142;28;20219;-55
2022/04/23 21:18:23;;;;;;;9.27;6.87;;;;;;;4.48;100.00;95546.72;10415484;28;20213;-57
2022/04/23 21:23:24;;;;;;;12.37;8.57;;;;;;;4.32;100.00;95541.34;10415849;28;20294;-57
2022/04/23 21:28:25;;;;;;;12.43;8.00;;;;;;;4.29;100.00;95540.69;10415456;28;20220;-59
2022/04/23 21:33:25;;;;;;;12.73;8.70;;;;;;;4.35;100.00;95535.88;10415483;28;20281;-56
2022/04/23 21:38:26;;;;;;;12.00;8.97;;;;;;;4.25;100.00;95538.53;10414931;28;20729;-55
2022/04/23 21:48:45;;;;;;;13.10;7.90;;;;;;;4.19;100.00;95537.34;10417949;28;20216;-57
2022/04/23 21:53:45;;;;;;;12.17;7.60;;;;;;;3.96;100.00;95536.94;10417858;28;20271;-55
2022/04/23 21:58:46;;;;;;;11.17;8.03;;;;;;;3.86;100.00;95531.81;10415000;28;20740;-54
2022/04/23 22:03:51;;;;;;;10.00;7.87;;;;;;;3.81;100.00;95513.28;10410476;28;20265;-56
2022/04/23 22:08:51;;;;;;;10.10;7.43;;;;;;;3.73;100.00;95516.59;10409923;28;20631;-55
2022/04/23 22:13:52;;;;;;;9.47;8.13;;;;;;;3.68;100.00;95520.59;10409509;28;20184;-54
2022/04/23 22:18:52;;;;;;;11.87;7.87;;;;;;;3.59;100.00;95509.31;10409662;28;20313;-56
2022/04/23 22:23:52;;;;;;;11.50;8.13;;;;;;;3.54;100.00;95503.75;10409009;28;20215;-54
2022/04/23 22:28:53;;;;;;;10.27;8.23;;;;;;;3.49;100.00;95511.09;10408455;28;20220;-54
2022/04/23 22:33:54;;;;;;;11.37;8.23;;;;;;;3.39;100.00;95511.97;10408457;28;20200;-57
2022/04/23 22:38:54;;;;;;;11.87;8.10;;;;;;;3.46;100.00;95501.88;10408854;28;20243;-56
2022/04/23 22:43:55;;;;;;;11.50;7.93;;;;;;;3.45;100.00;95502.81;10407247;28;20228;-53
2022/04/23 22:48:56;;;;;;;15.40;8.60;;;;;;;3.45;100.00;95497.63;10407555;28;20262;-53
2022/04/23 22:53:57;;;;;;;11.90;8.47;;;;;;;3.51;100.00;95491.91;10408216;28;20239;-57
2022/04/23 22:58:57;;;;;;;10.83;8.30;;;;;;;3.49;100.00;95492.97;10407379;28;20220;-59
2022/04/23 23:03:58;;;;;;;10.57;8.07;;;;;;;3.37;100.00;95476.84;10407549;28;20231;-59
2022/04/23 23:08:58;;;;;;;10.47;8.77;;;;;;;3.34;100.00;95467.56;10407370;28;20360;-58
2022/04/23 23:13:58;;;;;;;11.50;8.03;;;;;;;3.33;100.00;95467.72;10406529;28;20239;-55
2022/04/23 23:18:59;;;;;;;11.93;8.53;;;;;;;3.32;100.00;95466.06;10437716;22;20381;-59
2022/04/23 23:23:59;;;;;;;10.10;8.30;;;;;;;3.25;100.00;95459.84;10493337;28;20223;-58
2022/04/23 23:28:59;;;;;;;10.07;8.37;;;;;;;3.14;100.00;95453.91;10493638;28;20222;-57
2022/04/23 23:34:00;;;;;;;10.67;8.17;;;;;;;3.15;100.00;95442.56;10493509;28;20270;-59
2022/04/23 23:39:00;;;;;;;11.20;8.53;;;;;;;3.07;100.00;95446.84;10493419;28;20218;-56
2022/04/23 23:44:01;;;;;;;13.03;8.93;;;;;;;2.96;100.00;95440.06;10492505;28;20234;-59
2022/04/23 23:49:02;;;;;;;10.73;8.47;;;;;;;2.87;100.00;95433.16;10493167;28;20273;-55
2022/04/23 23:54:06;;;;;;;15.40;8.53;;;;;;;2.88;100.00;95433.03;10493261;28;20210;-59
2022/04/23 23:59:07;;;;;;;13.53;8.13;;;;;;;2.82;100.00;95428.41;10492545;28;20214;-55
